createdAt,value
2022-09-06T00:00:12.944Z,4.20
2022-09-06T00:02:40.685Z,5.07
2022-09-06T00:05:09.145Z,4.38
2022-09-06T00:07:36.242Z,5.10
2022-09-06T00:10:04.158Z,4.57
2022-09-06T00:12:31.231Z,4.15
2022-09-06T00:14:59.867Z,4.93
2022-09-06T00:17:28.006Z,4.07
2022-09-06T00:19:54.835Z,4.82
2022-09-06T00:22:23.714Z,4.70
2022-09-06T00:24:50.431Z,4.20
2022-09-06T00:27:17.149Z,4.53
2022-09-06T00:29:44.040Z,5.45
2022-09-06T00:32:10.793Z,4.88
2022-09-06T00:34:37.565Z,4.78
2022-09-06T00:37:04.319Z,4.57
2022-09-06T00:39:31.118Z,4.55
2022-09-06T00:41:57.893Z,4.40
2022-09-06T00:44:24.642Z,4.13
2022-09-06T00:46:53.821Z,4.63
2022-09-06T00:49:28.048Z,4.88
2022-09-06T00:52:03.256Z,5.55
2022-09-06T00:54:30.492Z,5.65
2022-09-06T00:56:58.563Z,5.60
2022-09-06T00:59:27.632Z,5.47
2022-09-06T01:01:54.964Z,5.43
2022-09-06T01:04:22.101Z,5.72
2022-09-06T01:07:33.375Z,5.70
2022-09-06T01:10:18.174Z,5.55
2022-09-06T01:13:01.911Z,5.68
2022-09-06T01:15:39.118Z,5.63
2022-09-06T01:18:21.276Z,6.25
2022-09-06T01:21:04.208Z,5.78
2022-09-06T01:24:15.724Z,5.50
2022-09-06T01:27:19.050Z,5.13
2022-09-06T01:29:51.040Z,5.38
2022-09-06T01:32:50.024Z,5.90
2022-09-06T01:35:22.333Z,5.60
2022-09-06T01:37:51.145Z,6.30
2022-09-06T01:40:19.440Z,6.15
2022-09-06T01:42:49.472Z,6.30
2022-09-06T01:45:19.746Z,5.90
2022-09-06T01:48:05.028Z,5.93
2022-09-06T01:50:53.716Z,6.25
2022-09-06T01:53:55.666Z,6.20
2022-09-06T01:56:47.181Z,5.80
2022-09-06T01:59:22.536Z,5.50
2022-09-06T02:02:07.720Z,5.60
2022-09-06T02:04:38.800Z,5.25
2022-09-06T02:07:27.838Z,5.40
2022-09-06T02:10:07.163Z,5.00
2022-09-06T02:12:38.308Z,6.13
2022-09-06T02:15:15.765Z,5.65
2022-09-06T02:17:52.392Z,6.00
2022-09-06T02:20:26.953Z,5.63
2022-09-06T02:22:57.069Z,6.25
2022-09-06T02:25:28.448Z,6.10
2022-09-06T02:27:55.667Z,5.90
2022-09-06T02:30:22.477Z,6.30
2022-09-06T02:33:20.165Z,5.75
2022-09-06T02:35:49.552Z,5.85
2022-09-06T02:38:16.767Z,6.00
2022-09-06T02:40:45.538Z,5.93
2022-09-06T02:43:12.345Z,5.60
2022-09-06T02:45:39.139Z,5.95
2022-09-06T02:48:05.969Z,5.60
2022-09-06T02:50:32.707Z,6.05
2022-09-06T02:53:17.862Z,5.05
2022-09-06T02:55:47.522Z,5.10
2022-09-06T02:58:15.281Z,5.38
2022-09-06T03:00:42.022Z,5.63
2022-09-06T03:03:08.796Z,5.90
2022-09-06T03:05:37.049Z,5.40
2022-09-06T03:08:03.808Z,5.47
2022-09-06T03:10:30.565Z,5.68
2022-09-06T03:12:57.373Z,5.15
2022-09-06T03:15:24.408Z,5.72
2022-09-06T03:17:51.156Z,5.18
2022-09-06T03:20:17.945Z,5.13
2022-09-06T03:22:44.823Z,5.30
2022-09-06T03:25:11.624Z,5.07
2022-09-06T03:27:38.398Z,5.45
2022-09-06T03:30:06.563Z,5.40
2022-09-06T03:32:33.366Z,6.07
2022-09-06T03:35:02.546Z,5.50
2022-09-06T03:37:29.327Z,5.15
2022-09-06T03:39:56.126Z,5.53
2022-09-06T03:42:23.112Z,4.93
2022-09-06T03:44:49.840Z,5.65
2022-09-06T03:47:19.416Z,4.93
2022-09-06T03:49:47.225Z,5.18
2022-09-06T03:52:14.650Z,5.63
2022-09-06T03:54:41.393Z,5.35
2022-09-06T03:57:08.118Z,5.88
2022-09-06T03:59:35.127Z,5.50
2022-09-06T04:02:02.535Z,6.55
2022-09-06T04:04:29.391Z,6.72
2022-09-06T04:06:56.133Z,6.45
2022-09-06T04:09:23.438Z,6.68
2022-09-06T04:11:50.224Z,8.43
2022-09-06T04:14:17.058Z,6.35
2022-09-06T04:16:43.919Z,6.32
2022-09-06T04:19:10.776Z,6.60
2022-09-06T04:21:37.545Z,5.65
2022-09-06T04:24:04.614Z,6.60
2022-09-06T04:26:31.343Z,5.03
2022-09-06T04:28:58.166Z,5.05
2022-09-06T04:31:24.937Z,5.75
2022-09-06T04:33:51.680Z,4.68
2022-09-06T04:36:18.416Z,5.85
2022-09-06T04:38:48.447Z,5.43
2022-09-06T04:41:16.991Z,5.00
2022-09-06T04:43:43.899Z,5.38
2022-09-06T04:46:20.975Z,5.47
2022-09-06T04:48:48.551Z,5.32
2022-09-06T04:51:15.482Z,5.60
2022-09-06T04:53:42.227Z,5.72
2022-09-06T04:56:13.955Z,5.15
2022-09-06T04:58:40.663Z,5.32
2022-09-06T05:01:07.651Z,5.40
2022-09-06T05:03:34.409Z,6.20
2022-09-06T05:06:10.027Z,6.25
2022-09-06T05:08:39.031Z,5.28
2022-09-06T05:11:09.017Z,4.90
2022-09-06T05:13:35.745Z,5.65
2022-09-06T05:16:04.329Z,5.35
2022-09-06T05:18:31.400Z,5.55
2022-09-06T05:20:58.969Z,5.85
2022-09-06T05:23:26.659Z,5.55
2022-09-06T05:25:53.637Z,5.50
2022-09-06T05:28:23.078Z,4.57
2022-09-06T05:30:49.929Z,5.65
2022-09-06T05:33:22.277Z,5.47
2022-09-06T05:35:49.406Z,5.40
2022-09-06T05:38:16.316Z,8.40
2022-09-06T05:40:43.361Z,6.05
2022-09-06T05:43:10.092Z,6.78
2022-09-06T05:45:37.141Z,5.15
2022-09-06T05:48:04.068Z,5.32
2022-09-06T05:50:30.823Z,5.30
2022-09-06T05:52:57.564Z,4.30
2022-09-06T05:55:24.301Z,9.13
2022-09-06T05:57:50.996Z,4.13
2022-09-06T06:00:17.993Z,4.47
2022-09-06T06:02:48.230Z,4.18
2022-09-06T06:05:15.856Z,3.95
2022-09-06T06:07:43.153Z,3.63
2022-09-06T06:10:10.538Z,3.90
2022-09-06T06:12:37.340Z,3.80
2022-09-06T06:15:05.702Z,4.13
2022-09-06T06:17:32.579Z,3.63
2022-09-06T06:20:03.011Z,3.90
2022-09-06T06:22:29.712Z,3.45
2022-09-06T06:24:56.415Z,4.20
2022-09-06T06:27:23.110Z,4.15
2022-09-06T06:29:50.593Z,3.70
2022-09-06T06:32:17.527Z,3.70
2022-09-06T06:34:46.307Z,3.60
2022-09-06T06:37:13.005Z,3.53
2022-09-06T06:39:39.878Z,3.40
2022-09-06T06:42:06.727Z,6.90
2022-09-06T06:44:53.342Z,6.45
2022-09-06T06:47:20.483Z,4.50
2022-09-06T06:49:48.488Z,4.57
2022-09-06T06:52:15.498Z,4.15
2022-09-06T06:54:42.281Z,3.90
2022-09-06T06:57:09.458Z,3.42
2022-09-06T06:59:36.213Z,4.05
2022-09-06T07:02:03.072Z,3.45
2022-09-06T07:04:29.843Z,3.60
2022-09-06T07:12:33.036Z,3.00
2022-09-06T07:15:01.628Z,4.13
2022-09-06T07:17:28.831Z,7.63
2022-09-06T07:22:42.450Z,2.00
2022-09-06T07:25:12.185Z,1.80
2022-09-06T07:27:48.052Z,1.50
2022-09-06T07:30:15.756Z,1.88
2022-09-06T07:32:42.527Z,1.75
2022-09-06T07:35:09.564Z,1.63
2022-09-06T07:37:39.374Z,1.70
2022-09-06T07:40:06.603Z,1.83
2022-09-06T07:42:36.200Z,2.05
2022-09-06T07:45:04.551Z,1.70
2022-09-06T07:55:33.604Z,1.88
2022-09-06T07:58:38.003Z,1.98
2022-09-06T08:01:30.286Z,1.92
2022-09-06T08:04:02.727Z,1.85
2022-09-06T08:06:31.903Z,1.92
2022-09-06T08:08:59.833Z,2.03
2022-09-06T08:11:32.689Z,1.60
2022-09-06T08:14:00.893Z,1.63
2022-09-06T08:16:29.618Z,1.85
2022-09-06T08:18:59.082Z,1.45
2022-09-06T08:21:28.465Z,1.52
2022-09-06T08:24:00.643Z,1.30
2022-09-06T08:26:28.907Z,1.45
2022-09-06T08:28:59.128Z,1.30
2022-09-06T08:31:27.077Z,1.20
2022-09-06T08:33:54.813Z,1.23
2022-09-06T08:36:21.775Z,1.00
2022-09-06T08:38:48.534Z,1.10
2022-09-06T08:41:15.170Z,0.90
2022-09-06T08:46:59.219Z,1.35
2022-09-06T08:49:29.189Z,1.05
2022-09-06T08:52:06.920Z,1.30
2022-09-06T08:54:54.272Z,1.50
2022-09-06T08:57:41.908Z,1.33
2022-09-06T09:00:13.557Z,1.05
2022-09-06T09:03:06.694Z,1.33
2022-09-06T09:05:35.635Z,1.20
2022-09-06T09:08:39.640Z,1.08
2022-09-06T09:11:09.012Z,1.10
2022-09-06T09:13:50.678Z,1.13
2022-09-06T09:16:18.173Z,0.98
2022-09-06T09:19:05.764Z,1.20
2022-09-06T09:21:40.406Z,1.77
2022-09-06T09:24:13.118Z,1.05
2022-09-06T09:27:06.033Z,1.10
2022-09-06T09:29:36.246Z,1.05
2022-09-06T09:32:03.432Z,1.10
2022-09-06T09:34:39.661Z,1.48
2022-09-06T09:40:18.044Z,1.43
2022-09-06T09:42:45.317Z,1.10
2022-09-06T09:45:41.146Z,1.15
2022-09-06T09:48:21.136Z,0.80
2022-09-06T09:50:50.248Z,1.30
2022-09-06T09:53:22.751Z,1.20
2022-09-06T09:55:55.911Z,0.80
2022-09-06T09:58:36.207Z,1.30
2022-09-06T10:01:35.556Z,1.13
2022-09-06T10:07:22.789Z,1.08
2022-09-06T10:09:56.437Z,1.00
2022-09-06T10:12:29.617Z,0.90
2022-09-06T10:14:57.216Z,1.40
2022-09-06T10:17:26.663Z,1.15
2022-09-06T10:19:54.472Z,1.35
2022-09-06T10:22:28.636Z,1.10
2022-09-06T10:25:00.887Z,1.30
2022-09-06T10:27:28.655Z,1.15
2022-09-06T10:30:04.699Z,1.40
2022-09-06T10:32:42.569Z,1.10
2022-09-06T10:35:21.585Z,1.10
2022-09-06T10:38:10.016Z,1.10
2022-09-06T10:40:52.119Z,1.02
2022-09-06T10:43:20.358Z,1.20
2022-09-06T10:45:54.881Z,1.40
2022-09-06T10:48:32.251Z,1.67
2022-09-06T10:51:21.575Z,3.47
2022-09-06T10:54:06.692Z,1.13
2022-09-06T10:56:52.319Z,1.02
2022-09-06T11:02:09.643Z,1.10
2022-09-06T11:07:40.466Z,1.13
2022-09-06T11:10:33.141Z,1.20
2022-09-06T11:13:25.233Z,1.00
2022-09-06T11:16:18.457Z,1.00
2022-09-06T11:19:01.338Z,1.30
2022-09-06T11:21:50.493Z,1.05
2022-09-06T11:24:47.694Z,1.25
2022-09-06T11:27:34.691Z,1.15
2022-09-06T11:30:07.130Z,1.30
2022-09-06T11:32:48.465Z,1.17
2022-09-06T11:35:25.428Z,1.45
2022-09-06T11:38:20.487Z,1.27
2022-09-06T11:40:51.532Z,1.23
2022-09-06T11:43:43.150Z,1.30
2022-09-06T11:46:10.222Z,1.40
2022-09-06T11:49:04.866Z,1.20
2022-09-06T11:51:54.605Z,1.30
2022-09-06T11:54:25.568Z,1.20
2022-09-06T11:57:20.587Z,1.30
2022-09-06T12:00:00.403Z,1.30
2022-09-06T12:02:41.477Z,1.70
2022-09-06T12:05:18.130Z,1.60
2022-09-06T12:08:13.099Z,1.65
2022-09-06T12:10:39.897Z,2.03
2022-09-06T12:13:37.571Z,1.67
2022-09-06T12:16:04.429Z,1.70
2022-09-06T12:18:43.553Z,2.25
2022-09-06T12:21:41.288Z,1.48
2022-09-06T12:24:29.277Z,1.85
2022-09-06T12:27:11.342Z,1.38
2022-09-06T12:29:38.360Z,1.52
2022-09-06T12:32:06.105Z,1.40
2022-09-06T12:34:35.622Z,1.67
2022-09-06T12:37:07.985Z,1.40
2022-09-06T12:39:35.548Z,1.30
2022-09-06T12:42:10.600Z,1.75
2022-09-06T12:44:49.662Z,1.27
2022-09-06T12:47:26.948Z,1.30
2022-09-06T12:50:17.796Z,1.80
2022-09-06T12:52:53.488Z,1.70
2022-09-06T12:55:24.864Z,1.60
2022-09-06T12:57:57.112Z,1.85
2022-09-06T13:00:27.764Z,1.95
2022-09-06T13:03:21.448Z,1.88
2022-09-06T13:05:48.476Z,2.10
2022-09-06T13:08:25.001Z,1.60
2022-09-06T13:10:52.463Z,2.10
2022-09-06T13:13:23.279Z,1.90
2022-09-06T13:15:50.425Z,2.03
2022-09-06T13:18:36.771Z,2.00
2022-09-06T13:21:06.531Z,2.33
2022-09-06T13:23:48.343Z,2.92
2022-09-06T13:26:15.765Z,2.00
2022-09-06T13:28:42.626Z,2.20
2022-09-06T13:31:11.931Z,2.22
2022-09-06T13:33:39.609Z,2.20
2022-09-06T13:36:23.188Z,1.90
2022-09-06T13:38:50.859Z,2.03
2022-09-06T13:41:26.771Z,1.83
2022-09-06T13:46:27.959Z,2.00
2022-09-06T13:48:55.985Z,1.80
2022-09-06T13:51:23.315Z,1.60
2022-09-06T13:53:50.696Z,1.80
2022-09-06T13:56:17.719Z,1.75
2022-09-06T13:58:45.173Z,1.70
2022-09-06T14:01:14.218Z,1.92
2022-09-06T14:03:42.005Z,1.85
2022-09-06T14:06:09.867Z,1.80
2022-09-06T14:08:56.130Z,1.85
2022-09-06T14:11:25.394Z,1.63
2022-09-06T14:13:53.297Z,1.60
2022-09-06T14:16:20.159Z,1.42
2022-09-06T14:18:47.111Z,1.70
2022-09-06T14:21:13.988Z,1.60
2022-09-06T14:23:40.849Z,1.80
2022-09-06T14:26:07.585Z,1.67
2022-09-06T14:28:36.793Z,2.00
2022-09-06T14:31:17.054Z,2.28
2022-09-06T14:33:43.956Z,2.05
2022-09-06T14:36:13.113Z,2.22
2022-09-06T14:38:41.677Z,2.08
2022-09-06T14:41:09.698Z,1.80
2022-09-06T14:43:36.977Z,2.03
2022-09-06T14:46:05.458Z,2.20
2022-09-06T14:48:32.904Z,2.38
2022-09-06T14:51:25.213Z,2.80
2022-09-06T14:53:56.117Z,2.53
2022-09-06T14:56:26.172Z,2.05
2022-09-06T14:58:57.103Z,2.17
2022-09-06T15:01:27.426Z,2.55
2022-09-06T15:03:57.603Z,2.15
2022-09-06T15:06:26.410Z,2.05
2022-09-06T15:08:57.031Z,2.17
2022-09-06T15:11:39.315Z,2.35
2022-09-06T15:14:12.947Z,1.95
2022-09-06T15:16:39.680Z,2.22
2022-09-06T15:19:07.841Z,2.00
2022-09-06T15:21:34.835Z,1.83
2022-09-06T15:24:02.555Z,2.00
2022-09-06T15:26:30.260Z,1.90
2022-09-06T15:29:00.059Z,2.30
2022-09-06T15:32:00.436Z,1.90
2022-09-06T15:34:37.550Z,2.15
2022-09-06T15:37:04.382Z,1.92
2022-09-06T15:39:33.464Z,2.10
2022-09-06T15:42:00.229Z,2.30
2022-09-06T15:44:26.934Z,2.33
2022-09-06T15:46:58.049Z,2.50
2022-09-06T15:49:28.572Z,2.00
2022-09-06T15:52:00.804Z,2.00
2022-09-06T15:54:47.827Z,2.33
2022-09-06T15:57:16.497Z,2.30
2022-09-06T15:59:43.866Z,1.90
2022-09-06T16:02:10.796Z,2.90
2022-09-06T16:04:37.751Z,2.30
2022-09-06T16:07:04.682Z,2.30
2022-09-06T16:09:31.750Z,2.00
2022-09-06T16:11:58.536Z,2.15
2022-09-06T16:14:25.614Z,2.22
2022-09-06T16:16:54.983Z,2.22
2022-09-06T16:19:21.921Z,2.45
2022-09-06T16:21:48.692Z,2.20
2022-09-06T16:24:16.932Z,2.20
2022-09-06T16:26:46.198Z,2.10
2022-09-06T16:29:14.881Z,2.40
2022-09-06T16:31:41.726Z,2.28
2022-09-06T16:34:09.915Z,2.20
2022-09-06T16:36:37.474Z,2.20
2022-09-06T16:39:05.408Z,2.50
2022-09-06T16:41:43.189Z,2.47
2022-09-06T16:44:16.186Z,2.30
2022-09-06T16:46:45.655Z,1.90
2022-09-06T16:49:18.728Z,2.47
2022-09-06T16:51:47.004Z,2.13
2022-09-06T16:54:15.365Z,1.90
2022-09-06T16:56:44.486Z,2.35
2022-09-06T16:59:15.063Z,2.30
2022-09-06T17:01:42.081Z,1.90
2022-09-06T17:04:09.800Z,2.28
2022-09-06T17:06:43.942Z,2.10
2022-09-06T17:09:15.830Z,2.10
2022-09-06T17:11:42.707Z,2.38
2022-09-06T17:14:11.637Z,2.45
2022-09-06T17:16:57.050Z,3.13
2022-09-06T17:19:23.918Z,2.72
2022-09-06T17:21:50.815Z,2.90
2022-09-06T17:24:17.774Z,2.53
2022-09-06T17:26:44.556Z,2.60
2022-09-06T17:29:14.102Z,2.60
2022-09-06T17:31:44.096Z,3.08
2022-09-06T17:34:13.395Z,2.95
2022-09-06T17:36:40.144Z,3.25
2022-09-06T17:39:09.800Z,4.38
2022-09-06T17:41:39.665Z,4.90
2022-09-06T17:44:10.047Z,3.10
2022-09-06T17:46:38.949Z,2.15
2022-09-06T17:49:10.924Z,3.15
2022-09-06T17:51:38.104Z,4.10
2022-09-06T17:54:09.829Z,2.60
2022-09-06T17:56:37.170Z,3.05
2022-09-06T17:59:07.889Z,2.72
2022-09-06T18:01:36.542Z,3.05
2022-09-06T18:04:05.084Z,2.60
2022-09-06T18:06:33.290Z,2.60
2022-09-06T18:09:05.696Z,3.30
2022-09-06T18:11:33.591Z,5.20
2022-09-06T18:14:04.038Z,4.15
2022-09-06T18:16:32.026Z,2.20
2022-09-06T18:19:00.827Z,2.25
2022-09-06T18:21:30.212Z,2.50
2022-09-06T18:23:57.893Z,2.20
2022-09-06T18:26:25.613Z,2.88
2022-09-06T18:28:53.450Z,2.22
2022-09-06T18:31:22.496Z,2.53
2022-09-06T18:33:51.090Z,2.30
2022-09-06T18:36:19.446Z,2.30
2022-09-06T18:38:48.780Z,2.28
2022-09-06T18:41:35.471Z,2.10
2022-09-06T18:46:36.172Z,2.10
2022-09-06T18:49:03.024Z,2.20
2022-09-06T18:51:29.933Z,2.40
2022-09-06T18:53:58.280Z,2.10
2022-09-06T18:56:26.538Z,2.28
2022-09-06T18:59:00.908Z,2.30
2022-09-06T19:01:29.965Z,2.35
2022-09-06T19:04:00.547Z,2.13
2022-09-06T19:06:29.519Z,2.08
2022-09-06T19:09:02.264Z,2.53
2022-09-06T19:11:29.460Z,2.30
2022-09-06T19:13:57.312Z,2.40
2022-09-06T19:16:26.621Z,2.63
2022-09-06T19:18:56.907Z,2.55
2022-09-06T19:21:25.499Z,2.67
2022-09-06T19:23:58.613Z,2.65
2022-09-06T19:26:28.595Z,2.60
2022-09-06T19:29:00.374Z,2.97
2022-09-06T19:31:30.522Z,2.53
2022-09-06T19:33:57.694Z,2.40
2022-09-06T19:36:26.308Z,2.60
2022-09-06T19:39:03.879Z,2.08
2022-09-06T19:41:32.958Z,2.50
2022-09-06T19:44:00.168Z,2.42
2022-09-06T19:46:27.546Z,2.38
2022-09-06T19:48:58.181Z,2.72
2022-09-06T19:51:25.310Z,2.42
2022-09-06T19:53:54.268Z,2.63
2022-09-06T19:56:27.127Z,2.70
2022-09-06T19:58:55.742Z,2.78
2022-09-06T20:01:23.677Z,2.50
2022-09-06T20:03:51.014Z,2.45
2022-09-06T20:06:18.087Z,2.60
2022-09-06T20:08:50.499Z,2.85
2022-09-06T20:11:18.166Z,2.35
2022-09-06T20:13:45.056Z,2.40
2022-09-06T20:16:12.983Z,2.28
2022-09-06T20:18:40.447Z,2.05
2022-09-06T20:21:07.889Z,2.00
2022-09-06T20:23:35.490Z,2.10
2022-09-06T20:26:05.594Z,2.17
2022-09-06T20:28:33.052Z,2.10
2022-09-06T20:31:04.061Z,2.00
2022-09-06T20:33:31.327Z,2.08
2022-09-06T20:36:02.884Z,2.58
2022-09-06T20:38:30.761Z,2.00
2022-09-06T20:41:08.014Z,2.30
2022-09-06T20:43:39.032Z,2.05
2022-09-06T20:46:29.965Z,1.83
2022-09-06T20:48:59.627Z,1.75
2022-09-06T20:51:26.499Z,2.08
2022-09-06T20:53:55.774Z,2.05
2022-09-06T20:56:24.836Z,1.80
2022-09-06T20:59:00.598Z,1.90
2022-09-06T21:01:33.512Z,1.80
2022-09-06T21:04:01.482Z,1.60
2022-09-06T21:06:30.498Z,1.90
2022-09-06T21:08:58.010Z,1.92
2022-09-06T21:11:25.017Z,2.00
2022-09-06T21:14:01.375Z,1.88
2022-09-06T21:16:32.308Z,1.90
2022-09-06T21:19:05.364Z,1.98
2022-09-06T21:21:34.774Z,1.80
2022-09-06T21:24:04.066Z,1.92
2022-09-06T21:26:31.635Z,2.05
2022-09-06T21:28:59.192Z,1.90
2022-09-06T21:31:32.226Z,1.75
2022-09-06T21:34:05.016Z,2.10
2022-09-06T21:36:38.061Z,1.90
2022-09-06T21:39:15.247Z,1.70
2022-09-06T21:41:44.240Z,1.90
2022-09-06T21:44:12.413Z,2.00
2022-09-06T21:46:41.078Z,2.30
2022-09-06T21:49:11.205Z,1.80
2022-09-06T21:55:53.145Z,2.13
2022-09-06T21:58:23.886Z,2.55
2022-09-06T22:00:59.186Z,2.10
2022-09-06T22:03:31.179Z,2.03
2022-09-06T22:05:58.932Z,1.92
2022-09-06T22:08:26.725Z,2.20
2022-09-06T22:10:53.956Z,2.50
2022-09-06T22:13:21.508Z,2.15
2022-09-06T22:15:49.202Z,1.90
2022-09-06T22:18:16.320Z,2.30
2022-09-06T22:20:43.367Z,1.90
2022-09-06T22:23:10.864Z,2.70
2022-09-06T22:25:38.183Z,2.10
2022-09-06T22:28:05.224Z,2.67
2022-09-06T22:30:32.173Z,2.30
2022-09-06T22:32:59.341Z,2.40
2022-09-06T22:35:26.379Z,2.85
2022-09-06T22:37:53.537Z,2.17
2022-09-06T22:40:20.569Z,2.60
2022-09-06T22:42:47.731Z,2.55
2022-09-06T22:45:14.869Z,2.53
2022-09-06T22:47:42.141Z,2.42
2022-09-06T22:50:09.589Z,2.53
2022-09-06T22:52:36.848Z,2.50
2022-09-06T22:55:03.806Z,2.90
2022-09-06T22:57:30.577Z,3.58
2022-09-06T22:59:57.353Z,3.00
2022-09-06T23:02:24.106Z,2.97
2022-09-06T23:04:51.420Z,2.80
2022-09-06T23:07:18.171Z,2.85
2022-09-06T23:09:45.069Z,2.47
2022-09-06T23:12:12.306Z,2.90
2022-09-06T23:14:39.019Z,3.20
2022-09-06T23:17:06.057Z,2.67
2022-09-06T23:19:32.881Z,2.70
2022-09-06T23:21:59.594Z,3.10
2022-09-06T23:24:27.176Z,2.85
2022-09-06T23:26:54.487Z,2.90
2022-09-06T23:29:21.262Z,3.00
2022-09-06T23:31:48.191Z,2.78
2022-09-06T23:34:15.170Z,2.85
2022-09-06T23:36:41.902Z,3.08
2022-09-06T23:39:08.784Z,2.92
2022-09-06T23:41:35.532Z,2.80
2022-09-06T23:44:02.601Z,2.85
2022-09-06T23:46:29.618Z,3.28
2022-09-06T23:48:56.373Z,3.00
2022-09-06T23:51:23.105Z,2.90
2022-09-06T23:53:49.822Z,2.63
2022-09-06T23:56:16.556Z,3.00
2022-09-06T23:58:43.283Z,3.17
